Time,TemperatureF,DewpointF,PressureIn,WindDirection,WindDirectionDegrees,WindSpeedMPH,WindSpeedGustMPH,Humidity,HourlyPrecipIn,Conditions,Clouds,dailyrainin,SoftwareType,DateUTC
2013-09-02 00:13:00,53.0,50.0,-100.00,ENE,75,3.0,6.0,90,-99.99,,,-99.99,,2013-09-02 05:13:00,
2013-09-02 00:23:00,53.0,50.0,-100.00,ENE,75,3.0,6.0,90,-99.99,,,-99.99,,2013-09-02 05:23:00,
2013-09-02 00:34:00,53.0,50.0,-100.00,ENE,75,3.0,6.0,90,-99.99,,,-99.99,,2013-09-02 05:34:00,
2013-09-02 01:12:00,53.0,50.0,-100.00,ENE,65,2.0,4.0,92,-99.99,,,-99.99,,2013-09-02 06:12:00,
2013-09-02 01:22:00,53.0,50.0,-100.00,ENE,65,2.0,4.0,92,-99.99,,,-99.99,,2013-09-02 06:22:00,
2013-09-02 01:43:00,52.0,50.0,-100.00,ENE,65,2.0,4.0,94,-99.99,,,-99.99,,2013-09-02 06:43:00,
2013-09-02 01:52:00,52.0,50.0,-100.00,ENE,65,2.0,4.0,94,-99.99,,,-99.99,,2013-09-02 06:52:00,
2013-09-02 02:11:00,50.0,49.0,-100.00,ENE,60,1.0,2.0,95,-99.99,,,-99.99,,2013-09-02 07:11:00,
2013-09-02 02:21:00,50.0,49.0,-100.00,ENE,60,1.0,2.0,95,-99.99,,,-99.99,,2013-09-02 07:21:00,
2013-09-02 02:33:00,50.0,49.0,-100.00,ENE,60,1.0,2.0,95,-99.99,,,-99.99,,2013-09-02 07:33:00,
2013-09-02 03:11:00,48.0,47.0,-100.00,ENE,65,0.0,1.0,99,-99.99,,,-99.99,,2013-09-02 08:11:00,
2013-09-02 03:22:00,48.0,47.0,-100.00,ENE,65,0.0,1.0,99,-99.99,,,-99.99,,2013-09-02 08:22:00,
2013-09-02 03:42:00,46.0,46.0,-100.00,NW,315,3.0,4.0,99,-99.99,,,-99.99,,2013-09-02 08:42:00,
2013-09-02 03:52:00,46.0,46.0,-100.00,NW,315,3.0,4.0,99,-99.99,,,-99.99,,2013-09-02 08:52:00,
2013-09-02 04:12:00,44.0,44.0,-100.00,WNW,300,2.0,4.0,99,-99.99,,,-99.99,,2013-09-02 09:12:00,
2013-09-02 04:22:00,44.0,44.0,-100.00,WNW,300,2.0,4.0,99,-99.99,,,-99.99,,2013-09-02 09:22:00,
2013-09-02 04:44:00,45.0,45.0,-100.00,NW,320,4.0,4.0,99,-99.99,,,-99.99,,2013-09-02 09:44:00,
2013-09-02 04:53:00,45.0,45.0,-100.00,NW,320,4.0,4.0,99,-99.99,,,-99.99,,2013-09-02 09:53:00,
2013-09-02 05:13:00,44.0,43.0,-100.00,West,280,2.0,3.0,99,-99.99,,,-99.99,,2013-09-02 10:13:00,
2013-09-02 05:23:00,44.0,43.0,-100.00,West,280,2.0,3.0,99,-99.99,,,-99.99,,2013-09-02 10:23:00,
2013-09-02 05:42:00,44.0,44.0,-100.00,West,280,3.0,4.0,99,-99.99,,,-99.99,,2013-09-02 10:42:00,
2013-09-02 05:53:00,44.0,44.0,-100.00,West,280,3.0,4.0,99,-99.99,,,-99.99,,2013-09-02 10:53:00,
2013-09-02 06:11:00,44.0,44.0,-100.00,WNW,295,2.0,2.0,99,-99.99,,,-99.99,,2013-09-02 11:11:00,
2013-09-02 06:22:00,44.0,44.0,-100.00,WNW,295,2.0,2.0,99,-99.99,,,-99.99,,2013-09-02 11:22:00,
2013-09-02 06:42:00,44.0,44.0,-100.00,WNW,285,2.0,5.0,99,-99.99,,,-99.99,,2013-09-02 11:42:00,
2013-09-02 06:52:00,44.0,44.0,-100.00,WNW,285,2.0,5.0,99,-99.99,,,-99.99,,2013-09-02 11:52:00,
2013-09-02 07:12:00,44.0,43.0,-100.00,WNW,300,2.0,4.0,99,-99.99,,,-99.99,,2013-09-02 12:12:00,
2013-09-02 07:21:00,44.0,43.0,-100.00,WNW,300,2.0,4.0,99,-99.99,,,-99.99,,2013-09-02 12:21:00,
2013-09-02 07:43:00,44.0,44.0,-100.00,NW,310,3.0,4.0,99,-99.99,,,-99.99,,2013-09-02 12:43:00,
2013-09-02 07:52:00,44.0,44.0,-100.00,NW,310,3.0,4.0,99,-99.99,,,-99.99,,2013-09-02 12:52:00,
2013-09-02 08:11:00,46.0,45.0,-100.00,NW,320,1.0,2.0,99,-99.99,,,-99.99,,2013-09-02 13:11:00,
2013-09-02 08:22:00,46.0,45.0,-100.00,NW,320,1.0,2.0,99,-99.99,,,-99.99,,2013-09-02 13:22:00,
2013-09-02 08:42:00,47.0,47.0,-100.00,North,350,0.0,1.0,99,-99.99,,,-99.99,,2013-09-02 13:42:00,
2013-09-02 08:52:00,47.0,47.0,-100.00,North,350,0.0,1.0,99,-99.99,,,-99.99,,2013-09-02 13:52:00,
2013-09-02 09:11:00,50.0,50.0,-100.00,NNE,20,1.0,2.0,99,-99.99,,,-99.99,,2013-09-02 14:11:00,
2013-09-02 09:22:00,50.0,50.0,-100.00,NNE,20,1.0,2.0,99,-99.99,,,-99.99,,2013-09-02 14:22:00,
2013-09-02 09:43:00,53.0,53.0,-100.00,ENE,60,1.0,4.0,99,-99.99,,,-99.99,,2013-09-02 14:43:00,
2013-09-02 09:52:00,53.0,53.0,-100.00,ENE,60,1.0,4.0,99,-99.99,,,-99.99,,2013-09-02 14:52:00,
2013-09-02 10:12:00,56.0,56.0,-100.00,WSW,240,1.0,2.0,99,-99.99,,,-99.99,,2013-09-02 15:12:00,
2013-09-02 10:23:00,56.0,56.0,-100.00,WSW,240,1.0,2.0,99,-99.99,,,-99.99,,2013-09-02 15:23:00,
2013-09-02 10:45:00,58.0,55.0,-100.00,SSW,205,1.0,3.0,87,-99.99,,,-99.99,,2013-09-02 15:45:00,
2013-09-02 10:55:00,58.0,55.0,-100.00,SSW,205,1.0,3.0,87,-99.99,,,-99.99,,2013-09-02 15:55:00,
2013-09-02 11:14:00,63.0,52.0,-100.00,NNE,20,2.0,6.0,69,-99.99,,,-99.99,,2013-09-02 16:14:00,
2013-09-02 11:24:00,63.0,52.0,-100.00,NNE,20,2.0,6.0,69,-99.99,,,-99.99,,2013-09-02 16:24:00,
2013-09-02 11:43:00,64.0,49.0,-100.00,SE,130,3.0,7.0,58,-99.99,,,-99.99,,2013-09-02 16:43:00,
2013-09-02 11:53:00,64.0,49.0,-100.00,SE,130,3.0,7.0,58,-99.99,,,-99.99,,2013-09-02 16:53:00,
2013-09-02 12:13:00,66.0,48.0,-100.00,SE,130,3.0,7.0,53,-99.99,,,-99.99,,2013-09-02 17:13:00,
2013-09-02 12:23:00,66.0,48.0,-100.00,SE,130,3.0,7.0,53,-99.99,,,-99.99,,2013-09-02 17:23:00,
2013-09-02 12:45:00,67.0,47.0,-100.00,South,175,1.0,6.0,48,-99.99,,,-99.99,,2013-09-02 17:45:00,
2013-09-02 12:52:00,67.0,47.0,-100.00,South,175,1.0,6.0,48,-99.99,,,-99.99,,2013-09-02 17:52:00,
2013-09-02 13:13:00,68.0,48.0,-100.00,SE,125,4.0,9.0,49,-99.99,,,-99.99,,2013-09-02 18:13:00,
2013-09-02 13:22:00,68.0,48.0,-100.00,SE,125,4.0,9.0,49,-99.99,,,-99.99,,2013-09-02 18:22:00,
2013-09-02 13:42:00,69.0,48.0,-100.00,SSE,160,2.0,7.0,47,-99.99,,,-99.99,,2013-09-02 18:42:00,
2013-09-02 13:52:00,69.0,48.0,-100.00,SSE,160,2.0,7.0,47,-99.99,,,-99.99,,2013-09-02 18:52:00,
2013-09-02 14:12:00,70.0,47.0,-100.00,SE,125,4.0,7.0,44,-99.99,,,-99.99,,2013-09-02 19:12:00,
2013-09-02 14:22:00,70.0,47.0,-100.00,SE,125,4.0,7.0,44,-99.99,,,-99.99,,2013-09-02 19:22:00,
2013-09-02 14:42:00,71.0,47.0,-100.00,ENE,70,1.0,11.0,42,-99.99,,,-99.99,,2013-09-02 19:42:00,
2013-09-02 14:52:00,71.0,47.0,-100.00,ENE,70,1.0,11.0,42,-99.99,,,-99.99,,2013-09-02 19:52:00,
2013-09-02 15:12:00,70.0,45.0,-100.00,SSE,160,6.0,12.0,41,-99.99,,,-99.99,,2013-09-02 20:12:00,
2013-09-02 15:22:00,70.0,45.0,-100.00,SSE,160,6.0,12.0,41,-99.99,,,-99.99,,2013-09-02 20:22:00,
2013-09-02 15:42:00,73.0,46.0,-100.00,SSE,150,4.0,7.0,39,-99.99,,,-99.99,,2013-09-02 20:42:00,
2013-09-02 15:52:00,73.0,46.0,-100.00,SSE,150,4.0,7.0,39,-99.99,,,-99.99,,2013-09-02 20:52:00,
2013-09-02 16:12:00,73.0,47.0,-100.00,South,180,2.0,11.0,39,-99.99,,,-99.99,,2013-09-02 21:12:00,
2013-09-02 16:23:00,73.0,47.0,-100.00,South,180,2.0,11.0,39,-99.99,,,-99.99,,2013-09-02 21:23:00,
2013-09-02 16:44:00,73.0,45.0,-100.00,South,190,6.0,9.0,37,-99.99,,,-99.99,,2013-09-02 21:44:00,
2013-09-02 16:55:00,73.0,45.0,-100.00,South,190,6.0,9.0,37,-99.99,,,-99.99,,2013-09-02 21:55:00,
2013-09-02 17:13:00,74.0,45.0,-100.00,SSE,160,7.0,10.0,37,-99.99,,,-99.99,,2013-09-02 22:13:00,
2013-09-02 17:24:00,74.0,45.0,-100.00,SSE,160,7.0,10.0,37,-99.99,,,-99.99,,2013-09-02 22:24:00,
2013-09-02 17:44:00,73.0,45.0,-100.00,SSE,150,6.0,9.0,36,-99.99,,,-99.99,,2013-09-02 22:44:00,
2013-09-02 17:54:00,73.0,45.0,-100.00,SSE,150,6.0,9.0,36,-99.99,,,-99.99,,2013-09-02 22:54:00,
2013-09-02 18:12:00,74.0,45.0,-100.00,SW,235,4.0,7.0,35,-99.99,,,-99.99,,2013-09-02 23:12:00,
2013-09-02 18:22:00,74.0,45.0,-100.00,SW,235,4.0,7.0,35,-99.99,,,-99.99,,2013-09-02 23:22:00,
2013-09-02 18:42:00,74.0,44.0,-100.00,SE,130,4.0,10.0,35,-99.99,,,-99.99,,2013-09-02 23:42:00,
2013-09-02 18:53:00,74.0,44.0,-100.00,SE,130,4.0,10.0,35,-99.99,,,-99.99,,2013-09-02 23:53:00,
2013-09-02 19:12:00,73.0,45.0,-100.00,SSE,160,6.0,11.0,37,-99.99,,,-99.99,,2013-09-03 00:12:00,
2013-09-02 19:22:00,73.0,45.0,-100.00,SSE,160,6.0,11.0,37,-99.99,,,-99.99,,2013-09-03 00:22:00,
2013-09-02 19:42:00,73.0,43.0,-100.00,South,185,4.0,7.0,35,-99.99,,,-99.99,,2013-09-03 00:42:00,
2013-09-02 19:52:00,73.0,43.0,-100.00,South,185,4.0,7.0,35,-99.99,,,-99.99,,2013-09-03 00:52:00,
2013-09-02 20:02:00,73.0,43.0,-100.00,South,185,4.0,7.0,35,-99.99,,,-99.99,,2013-09-03 01:02:00,
2013-09-02 21:12:00,65.0,46.0,-100.00,SE,140,3.0,4.0,50,-99.99,,,-99.99,,2013-09-03 02:12:00,
2013-09-02 21:21:00,65.0,46.0,-100.00,SE,140,3.0,4.0,50,-99.99,,,-99.99,,2013-09-03 02:21:00,
2013-09-02 21:42:00,64.0,46.0,-100.00,SE,140,4.0,5.0,53,-99.99,,,-99.99,,2013-09-03 02:42:00,
2013-09-02 21:52:00,64.0,46.0,-100.00,SE,140,4.0,5.0,53,-99.99,,,-99.99,,2013-09-03 02:52:00,
2013-09-02 22:11:00,63.0,47.0,-100.00,SE,145,4.0,7.0,56,-99.99,,,-99.99,,2013-09-03 03:11:00,
2013-09-02 22:23:00,63.0,47.0,-100.00,SE,145,4.0,7.0,56,-99.99,,,-99.99,,2013-09-03 03:23:00,
2013-09-02 22:45:00,62.0,49.0,-100.00,SE,140,5.0,7.0,63,-99.99,,,-99.99,,2013-09-03 03:45:00,
2013-09-02 22:55:00,62.0,49.0,-100.00,SE,140,5.0,7.0,63,-99.99,,,-99.99,,2013-09-03 03:55:00,
2013-09-02 23:14:00,61.0,49.0,-100.00,SE,140,5.0,7.0,66,-99.99,,,-99.99,,2013-09-03 04:14:00,
2013-09-02 23:25:00,61.0,49.0,-100.00,SE,140,5.0,7.0,66,-99.99,,,-99.99,,2013-09-03 04:25:00,